This is the latest recevied weather packets stored in our database for station/object DL6MM-4. If no packets are shown the sender has not sent any weather packets the latest 10 day(s).
| Time | Temp. | Humidity | Pressure | Rain* | Wind** | Luminosity | Snow |
|---|---|---|---|---|---|---|---|
| 1777759755 | 12.22° C | 79% | 1013 hPa | 0 mm | - | - | - |
| 1777759155 | 12.22° C | 78% | 1013 hPa | 0 mm | - | - | - |
| 1777758555 | 12.22° C | 77% | 1013 hPa | 0 mm | - | - | - |
| 1777757955 | 12.78° C | 75% | 1013.1 hPa | 0 mm | - | - | - |
| 1777757355 | 12.78° C | 75% | 1013.1 hPa | 0 mm | - | - | - |
| 1777756755 | 13.33° C | 74% | 1013.2 hPa | 0 mm | - | - | - |
| 1777756155 | 13.33° C | 75% | 1013.2 hPa | 0 mm | - | - | - |
| 1777755555 | 13.33° C | 74% | 1013.2 hPa | 0 mm | - | - | - |
| 1777754955 | 13.33° C | 74% | 1013.2 hPa | 0 mm | - | - | - |
| 1777754355 | 13.89° C | 74% | 1013.2 hPa | 0 mm | - | - | - |
| 1777753755 | 13.89° C | 73% | 1013.4 hPa | 0 mm | - | - | - |
| 1777753155 | 14.44° C | 71% | 1013.4 hPa | 0 mm | - | - | - |
| 1777752555 | 14.44° C | 70% | 1013.4 hPa | 0 mm | - | - | - |
| 1777751955 | 15° C | 69% | 1013.4 hPa | 0 mm | - | - | - |
| 1777751355 | 15° C | 67% | 1013.4 hPa | 0 mm | - | - | - |
| 1777750755 | 15.56° C | 67% | 1013.4 hPa | 0 mm | - | - | - |
| 1777750155 | 16.11° C | 66% | 1013.4 hPa | 0 mm | - | - | - |
| 1777749555 | 16.67° C | 65% | 1013.2 hPa | 0 mm | - | - | - |
| 1777748955 | 16.11° C | 66% | 1013.2 hPa | 0 mm | - | - | - |
| 1777748355 | 16.67° C | 68% | 1013.2 hPa | 0 mm | - | - | - |
| 1777747755 | 17.22° C | 66% | 1013.2 hPa | 0 mm | - | - | - |
| 1777747155 | 18.33° C | 65% | 1013.2 hPa | 0 mm | - | - | - |
| 1777746555 | 18.89° C | 63% | 1013.2 hPa | 0 mm | - | - | - |
| 1777745955 | 18.89° C | 63% | 1013.2 hPa | 0 mm | - | - | - |
| 1777745355 | 20.56° C | 58% | 1013.2 hPa | 0 mm | - | - | - |
* Rain latest hour (hover to see other rain measurements)
** Current wind speed in m/s (hover to see current wind gust speed)